SABE/AEP METAR and TAF weather

Enter ICAO airport designator
Station Type Date Time Source
SABE METAR 2024/05/29 00:20 UTC NOAA

SABE 290020Z 08006KT 9999 BKN007 12/11 Q1026 NOSIG


Station Type Date Time Source
SABE Decoded METAR 2024/05/29 00:20 UTC NOAA

Aeroparque Bs. As. Aerodrome, Argentina (SABE) 34-34S 058-25W 6M
May 28, 2024 - 08:20 PM EDT / 2024.05.29 0020 UTC
Wind: from the E (080 degrees) at 7 MPH (6 KT):0
Visibility: greater than 7 mile(s):0
Sky conditions: mostly cloudy
Temperature: 53 F (12 C)
Dew Point: 51 F (11 C)
Relative Humidity: 93%
Pressure (altimeter): 30.30 in. Hg (1026 hPa)
ob: SABE 290020Z 08006KT 9999 BKN007 12/11 Q1026 NOSIG
cycle: 0

Station Type Date Time Source
SABE TAF 2024/05/29 00:03 UTC NOAA